createdAt,value
2022-11-05T00:02:42.941Z,16.50
2022-11-05T00:06:07.211Z,16.08
2022-11-05T00:09:29.762Z,16.45
2022-11-05T00:12:51.133Z,15.83
2022-11-05T00:16:12.479Z,15.15
2022-11-05T00:19:16.906Z,15.93
2022-11-05T00:22:56.213Z,15.93
2022-11-05T00:26:08.519Z,16.25
2022-11-05T00:29:11.213Z,15.47
2022-11-05T00:32:14.494Z,16.45
2022-11-05T00:35:19.948Z,16.33
2022-11-05T00:38:22.752Z,16.17
2022-11-05T00:41:25.315Z,16.30
2022-11-05T00:44:46.565Z,14.10
2022-11-05T00:48:08.052Z,15.18
2022-11-05T00:51:10.747Z,16.45
2022-11-05T00:54:13.348Z,13.85
2022-11-05T00:57:15.959Z,15.70
2022-11-05T01:00:19.056Z,14.83
2022-11-05T01:03:24.047Z,15.65
2022-11-05T01:06:26.780Z,15.20
2022-11-05T01:09:29.399Z,14.10
2022-11-05T01:12:32.351Z,15.88
2022-11-05T01:15:36.568Z,17.73
2022-11-05T01:18:39.330Z,15.23
2022-11-05T01:21:42.259Z,15.48
2022-11-05T01:24:44.823Z,15.07
2022-11-05T01:27:47.505Z,13.68
2022-11-05T01:30:56.059Z,13.90
2022-11-05T01:34:00.953Z,14.13
2022-11-05T01:37:03.779Z,15.55
2022-11-05T01:40:08.525Z,15.25
2022-11-05T01:43:18.473Z,15.90
2022-11-05T01:46:28.140Z,14.30
2022-11-05T01:49:34.272Z,14.23
2022-11-05T01:52:36.944Z,14.02
2022-11-05T01:55:44.340Z,15.75
2022-11-05T01:58:56.466Z,14.98
2022-11-05T02:02:00.892Z,13.20
2022-11-05T02:05:06.468Z,15.23
2022-11-05T02:08:19.554Z,13.52
2022-11-05T02:11:22.283Z,13.48
2022-11-05T02:14:25.053Z,14.07
2022-11-05T02:18:07.683Z,14.63
2022-11-05T02:21:51.945Z,13.40
2022-11-05T02:25:09.726Z,14.65
2022-11-05T02:28:29.596Z,13.80
2022-11-05T02:31:40.961Z,13.00
2022-11-05T02:35:00.327Z,13.87
2022-11-05T02:38:11.849Z,13.45
2022-11-05T02:41:30.425Z,14.93
2022-11-05T02:44:40.905Z,13.30
2022-11-05T02:47:57.287Z,12.95
2022-11-05T02:51:22.528Z,12.90
2022-11-05T02:54:34.449Z,13.35
2022-11-05T02:57:37.367Z,13.43
2022-11-05T03:00:39.965Z,13.68
2022-11-05T03:03:51.518Z,13.25
2022-11-05T03:07:22.381Z,13.50
2022-11-05T03:10:53.490Z,12.90
2022-11-05T03:14:18.589Z,12.75
2022-11-05T03:17:37.978Z,14.25
2022-11-05T03:21:02.929Z,13.07
2022-11-05T03:24:23.600Z,12.53
2022-11-05T03:27:31.456Z,12.05
2022-11-05T03:30:37.872Z,14.10
2022-11-05T03:33:43.354Z,12.63
2022-11-05T03:36:51.676Z,12.60
2022-11-05T03:39:58.916Z,12.80
2022-11-05T03:43:06.641Z,13.18
2022-11-05T03:46:22.181Z,12.90
2022-11-05T03:49:31.139Z,13.30
2022-11-05T03:52:39.258Z,12.20
2022-11-05T03:55:59.334Z,12.30
2022-11-05T03:59:05.070Z,12.52
2022-11-05T04:02:08.078Z,13.55
2022-11-05T04:05:12.051Z,11.77
2022-11-05T04:08:32.775Z,12.88
2022-11-05T04:11:54.985Z,12.43
2022-11-05T04:14:57.722Z,12.38
2022-11-05T04:18:00.327Z,12.38
2022-11-05T04:21:22.733Z,12.23
2022-11-05T04:24:25.334Z,11.45
2022-11-05T04:27:27.924Z,12.13
2022-11-05T04:30:35.066Z,11.25
2022-11-05T04:33:37.744Z,11.45
2022-11-05T04:36:40.298Z,13.07
2022-11-05T04:39:43.081Z,12.38
2022-11-05T04:42:45.678Z,11.53
2022-11-05T04:45:48.344Z,12.07
2022-11-05T04:48:51.176Z,12.10
2022-11-05T04:51:53.865Z,11.02
2022-11-05T04:54:56.753Z,11.93
2022-11-05T04:58:03.777Z,11.87
2022-11-05T05:01:06.809Z,11.00
2022-11-05T05:04:09.577Z,12.23
2022-11-05T05:07:12.189Z,12.40
2022-11-05T05:10:14.826Z,10.27
2022-11-05T05:13:17.366Z,12.13
2022-11-05T05:16:27.902Z,11.63
2022-11-05T05:19:31.464Z,10.50
2022-11-05T05:22:34.218Z,11.80
2022-11-05T05:25:36.862Z,10.85
2022-11-05T05:28:39.743Z,12.47
2022-11-05T05:31:42.920Z,11.70
2022-11-05T05:34:45.605Z,10.82
2022-11-05T05:37:48.158Z,12.70
2022-11-05T05:40:51.845Z,11.38
2022-11-05T05:43:54.718Z,9.83
2022-11-05T05:47:00.634Z,11.82
2022-11-05T05:50:03.569Z,11.38
2022-11-05T05:53:06.260Z,11.35
2022-11-05T05:56:08.852Z,10.75
2022-11-05T05:59:12.261Z,10.63
2022-11-05T06:02:14.987Z,10.93
2022-11-05T06:05:41.169Z,10.90
2022-11-05T06:08:44.876Z,10.45
2022-11-05T06:11:50.877Z,10.10
2022-11-05T06:14:53.611Z,12.33
2022-11-05T06:17:56.479Z,10.45
2022-11-05T06:21:04.599Z,11.45
2022-11-05T06:24:08.560Z,12.70
2022-11-05T06:27:11.241Z,10.70
2022-11-05T06:30:14.398Z,9.53
2022-11-05T06:33:31.926Z,10.13
2022-11-05T06:36:34.930Z,9.60
2022-11-05T06:39:37.564Z,10.55
2022-11-05T06:42:40.410Z,12.10
2022-11-05T06:45:42.991Z,12.40
2022-11-05T06:48:48.318Z,9.07
2022-11-05T06:51:51.912Z,10.80
2022-11-05T06:54:54.592Z,10.15
2022-11-05T06:57:58.045Z,10.55
2022-11-05T07:01:04.526Z,10.97
2022-11-05T07:04:07.389Z,9.63
2022-11-05T07:07:10.323Z,9.80
2022-11-05T07:10:15.815Z,10.10
2022-11-05T07:13:18.504Z,10.30
2022-11-05T07:16:21.304Z,10.43
2022-11-05T07:19:24.231Z,9.77
2022-11-05T07:22:27.167Z,9.35
2022-11-05T07:25:31.503Z,9.30
2022-11-05T07:28:34.270Z,9.65
2022-11-05T07:31:36.971Z,10.17
2022-11-05T07:34:39.658Z,8.88
2022-11-05T07:37:44.307Z,10.05
2022-11-05T07:40:46.856Z,9.50
2022-11-05T07:43:49.473Z,10.05
2022-11-05T07:46:52.294Z,9.03
2022-11-05T07:49:57.158Z,9.27
2022-11-05T07:53:01.967Z,10.10
2022-11-05T07:56:08.669Z,10.00
2022-11-05T07:59:11.554Z,10.75
2022-11-05T08:02:14.448Z,9.60
2022-11-05T08:05:17.253Z,9.38
2022-11-05T08:08:20.263Z,9.65
2022-11-05T08:11:23.330Z,8.98
2022-11-05T08:14:25.972Z,9.07
2022-11-05T08:17:28.567Z,9.37
2022-11-05T08:20:33.474Z,9.57
2022-11-05T08:23:39.631Z,8.68
2022-11-05T08:26:42.279Z,9.13
2022-11-05T08:29:44.936Z,8.10
2022-11-05T08:32:50.568Z,8.20
2022-11-05T08:35:53.266Z,9.63
2022-11-05T08:38:55.989Z,9.80
2022-11-05T08:41:58.629Z,9.13
2022-11-05T08:45:01.257Z,9.20
2022-11-05T08:48:07.576Z,10.03
2022-11-05T08:51:14.497Z,9.48
2022-11-05T08:54:21.148Z,8.55
2022-11-05T08:57:24.314Z,9.65
2022-11-05T09:00:36.952Z,8.75
2022-11-05T09:03:40.572Z,8.77
2022-11-05T09:06:47.781Z,8.75
2022-11-05T09:09:55.380Z,8.43
2022-11-05T09:13:01.661Z,8.32
2022-11-05T09:16:04.773Z,9.00
2022-11-05T09:19:07.533Z,8.40
2022-11-05T09:22:14.066Z,8.63
2022-11-05T09:25:16.996Z,8.80
2022-11-05T09:28:21.604Z,8.20
2022-11-05T09:31:24.205Z,8.55
2022-11-05T09:34:26.855Z,9.00
2022-11-05T09:37:29.834Z,9.25
2022-11-05T09:40:41.522Z,8.07
2022-11-05T09:43:48.597Z,8.70
2022-11-05T09:47:02.864Z,8.27
2022-11-05T09:50:15.832Z,9.20
2022-11-05T09:53:20.753Z,8.55
2022-11-05T09:56:42.439Z,7.95
2022-11-05T09:59:49.044Z,8.13
2022-11-05T10:02:55.853Z,9.30
2022-11-05T10:06:08.234Z,7.73
2022-11-05T10:09:37.271Z,8.20
2022-11-05T10:12:54.350Z,8.02
2022-11-05T10:16:17.124Z,8.43
2022-11-05T10:19:24.994Z,7.38
2022-11-05T10:22:27.666Z,7.13
2022-11-05T10:25:36.941Z,7.45
2022-11-05T10:28:39.840Z,8.00
2022-11-05T10:31:43.548Z,7.65
2022-11-05T10:34:46.286Z,7.28
2022-11-05T10:37:53.705Z,8.30
2022-11-05T10:41:20.737Z,8.18
2022-11-05T10:44:26.292Z,7.63
2022-11-05T10:47:31.703Z,7.25
2022-11-05T10:50:36.183Z,7.60
2022-11-05T10:53:40.647Z,7.53
2022-11-05T10:56:43.337Z,7.57
2022-11-05T10:59:45.896Z,8.32
2022-11-05T11:02:53.454Z,7.13
2022-11-05T11:06:13.497Z,8.30
2022-11-05T11:09:32.161Z,8.13
2022-11-05T11:12:41.036Z,7.20
2022-11-05T11:15:44.013Z,8.15
2022-11-05T11:18:46.780Z,8.25
2022-11-05T11:22:11.037Z,7.47
2022-11-05T11:25:48.500Z,7.90
2022-11-05T11:28:59.525Z,9.38
2022-11-05T11:32:02.693Z,7.82
2022-11-05T11:35:08.597Z,7.57
2022-11-05T11:38:15.979Z,7.72
2022-11-05T11:41:26.591Z,6.87
2022-11-05T11:44:35.775Z,7.72
2022-11-05T11:47:43.947Z,7.70
2022-11-05T11:50:48.165Z,7.78
2022-11-05T11:53:55.881Z,7.38
2022-11-05T11:56:58.660Z,6.77
2022-11-05T12:00:09.766Z,7.10
2022-11-05T12:03:46.089Z,7.30
2022-11-05T12:07:08.849Z,7.53
2022-11-05T12:10:35.440Z,7.03
2022-11-05T12:13:50.124Z,7.17
2022-11-05T12:17:07.668Z,6.97
2022-11-05T12:20:33.388Z,7.57
2022-11-05T12:23:36.094Z,6.75
2022-11-05T12:26:57.696Z,7.25
2022-11-05T12:30:14.189Z,6.93
2022-11-05T12:33:26.360Z,7.32
2022-11-05T12:37:28.820Z,7.57
2022-11-05T12:40:40.746Z,6.53
2022-11-05T12:44:01.801Z,7.15
2022-11-05T12:47:04.625Z,7.47
2022-11-05T12:50:20.820Z,7.47
2022-11-05T12:53:43.220Z,6.95
2022-11-05T12:56:50.293Z,7.38
2022-11-05T13:00:07.983Z,7.72
2022-11-05T13:03:22.322Z,6.87
2022-11-05T13:06:40.017Z,6.75
2022-11-05T13:10:06.256Z,6.65
2022-11-05T13:13:34.602Z,7.45
2022-11-05T13:16:41.966Z,6.47
2022-11-05T13:19:52.454Z,5.93
2022-11-05T13:23:07.462Z,6.30
2022-11-05T13:26:32.108Z,7.13
2022-11-05T13:29:49.683Z,7.22
2022-11-05T13:33:00.165Z,6.63
2022-11-05T13:36:27.374Z,6.70
2022-11-05T13:39:41.010Z,6.07
2022-11-05T13:43:02.637Z,6.63
2022-11-05T13:46:14.832Z,6.72
2022-11-05T13:49:49.139Z,6.53
2022-11-05T13:53:01.711Z,6.10
2022-11-05T13:56:23.544Z,6.15
2022-11-05T13:59:38.485Z,6.88
2022-11-05T14:02:58.963Z,5.97
2022-11-05T14:06:07.820Z,6.82
2022-11-05T14:09:16.773Z,6.70
2022-11-05T14:12:40.921Z,6.55
2022-11-05T14:16:09.157Z,6.32
2022-11-05T14:19:18.386Z,6.03
2022-11-05T14:22:33.650Z,5.88
2022-11-05T14:25:36.628Z,6.67
2022-11-05T14:28:43.931Z,6.55
2022-11-05T14:32:12.055Z,6.13
2022-11-05T14:35:27.733Z,6.55
2022-11-05T14:38:39.473Z,6.50
2022-11-05T14:41:59.781Z,5.83
2022-11-05T14:45:37.429Z,6.55
2022-11-05T14:49:05.133Z,6.15
2022-11-05T14:52:17.046Z,7.20
2022-11-05T14:55:27.892Z,6.65
2022-11-05T14:58:35.634Z,6.67
2022-11-05T15:01:44.480Z,6.10
2022-11-05T15:04:48.512Z,6.30
2022-11-05T15:07:57.346Z,6.00
2022-11-05T15:11:15.424Z,6.43
2022-11-05T15:14:18.937Z,6.13
2022-11-05T15:17:23.675Z,6.70
2022-11-05T15:20:48.283Z,6.40
2022-11-05T15:23:56.875Z,6.10
2022-11-05T15:27:03.178Z,6.65
2022-11-05T15:30:25.225Z,5.70
2022-11-05T15:33:29.602Z,6.45
2022-11-05T15:36:32.972Z,6.10
2022-11-05T15:39:41.888Z,5.57
2022-11-05T15:42:45.405Z,7.07
2022-11-05T15:46:05.852Z,6.20
2022-11-05T15:49:19.471Z,6.30
2022-11-05T15:52:42.458Z,6.13
2022-11-05T15:55:54.315Z,6.60
2022-11-05T15:59:03.616Z,5.75
2022-11-05T16:02:14.901Z,5.50
2022-11-05T16:05:18.880Z,9.68
2022-11-05T16:08:25.152Z,5.78
2022-11-05T16:11:48.479Z,5.82
2022-11-05T16:15:08.296Z,5.55
2022-11-05T16:18:23.597Z,5.50
2022-11-05T16:21:28.859Z,5.60
2022-11-05T16:24:32.368Z,5.88
2022-11-05T16:27:38.096Z,5.72
2022-11-05T16:31:02.478Z,5.85
2022-11-05T16:34:05.825Z,5.73
2022-11-05T16:37:13.994Z,6.03
2022-11-05T16:40:25.623Z,5.85
2022-11-05T16:43:29.801Z,5.15
2022-11-05T16:46:34.242Z,5.82
2022-11-05T16:49:38.793Z,5.70
2022-11-05T16:52:42.105Z,5.63
2022-11-05T16:55:51.905Z,6.45
2022-11-05T16:58:58.190Z,6.10
2022-11-05T17:02:02.206Z,5.38
2022-11-05T17:05:16.107Z,5.17
2022-11-05T17:08:21.920Z,5.57
2022-11-05T17:11:25.757Z,5.25
2022-11-05T17:14:30.759Z,5.53
2022-11-05T17:17:34.713Z,5.80
2022-11-05T17:21:03.249Z,5.07
2022-11-05T17:24:07.415Z,6.40
2022-11-05T17:27:12.331Z,6.20
2022-11-05T17:30:20.351Z,5.32
2022-11-05T17:33:24.320Z,6.00
2022-11-05T17:36:31.141Z,5.63
2022-11-05T17:39:34.957Z,5.50
2022-11-05T17:42:38.884Z,5.97
2022-11-05T17:45:48.427Z,5.50
2022-11-05T17:48:54.697Z,5.00
2022-11-05T17:51:58.640Z,5.47
2022-11-05T17:55:04.301Z,6.68
2022-11-05T17:58:08.820Z,5.40
2022-11-05T18:01:43.909Z,5.75
2022-11-05T18:04:47.615Z,5.28
2022-11-05T18:07:52.121Z,5.40
2022-11-05T18:11:19.742Z,5.82
2022-11-05T18:14:28.411Z,5.43
2022-11-05T18:17:34.568Z,5.35
2022-11-05T18:20:39.428Z,5.90
2022-11-05T18:23:44.763Z,4.90
2022-11-05T18:26:54.778Z,6.15
2022-11-05T18:30:03.826Z,5.97
2022-11-05T18:33:08.183Z,5.72
2022-11-05T18:36:26.357Z,5.45
2022-11-05T18:39:38.419Z,5.03
2022-11-05T18:42:46.269Z,5.85
2022-11-05T18:46:00.657Z,6.07
2022-11-05T18:49:05.124Z,4.93
2022-11-05T18:52:09.788Z,5.38
2022-11-05T18:55:13.828Z,5.63
2022-11-05T18:58:17.605Z,5.68
2022-11-05T19:01:24.569Z,4.93
2022-11-05T19:04:29.450Z,5.10
2022-11-05T19:07:38.323Z,5.55
2022-11-05T19:10:42.824Z,5.23
2022-11-05T19:13:48.404Z,6.00
2022-11-05T19:16:52.353Z,5.15
2022-11-05T19:20:13.254Z,5.78
2022-11-05T19:23:26.358Z,5.43
2022-11-05T19:26:31.665Z,6.00
2022-11-05T19:29:40.705Z,5.22
2022-11-05T19:32:45.390Z,5.85
2022-11-05T19:35:49.045Z,5.05
2022-11-05T19:38:58.008Z,5.03
2022-11-05T19:42:11.454Z,4.90
2022-11-05T19:45:44.262Z,5.43
2022-11-05T19:48:40.380Z,5.18
2022-11-05T19:51:44.150Z,4.97
2022-11-05T19:54:48.440Z,5.40
2022-11-05T19:57:52.424Z,5.40
2022-11-05T20:00:56.681Z,5.10
2022-11-05T20:04:02.982Z,6.25
2022-11-05T20:07:08.025Z,5.40
2022-11-05T20:10:11.887Z,5.15
2022-11-05T20:13:20.007Z,5.73
2022-11-05T20:16:29.950Z,4.57
2022-11-05T20:19:35.711Z,5.05
2022-11-05T20:22:39.738Z,5.32
2022-11-05T20:25:43.660Z,4.80
2022-11-05T20:28:52.949Z,5.43
2022-11-05T20:31:58.629Z,5.55
2022-11-05T20:35:07.326Z,4.38
2022-11-05T20:38:12.936Z,5.00
2022-11-05T20:41:23.824Z,4.10
2022-11-05T20:44:28.325Z,5.47
2022-11-05T20:47:32.966Z,6.15
2022-11-05T20:50:46.970Z,5.15
2022-11-05T20:54:02.880Z,5.65
2022-11-05T20:57:06.701Z,5.15
2022-11-05T21:00:10.654Z,4.53
2022-11-05T21:03:14.267Z,5.88
2022-11-05T21:06:18.188Z,5.70
2022-11-05T21:09:25.702Z,5.78
2022-11-05T21:12:32.514Z,4.75
2022-11-05T21:15:39.661Z,5.70
2022-11-05T21:18:43.190Z,4.85
2022-11-05T21:21:48.493Z,4.47
2022-11-05T21:24:52.089Z,5.32
2022-11-05T21:27:55.579Z,5.10
2022-11-05T21:31:10.203Z,4.30
2022-11-05T21:34:26.989Z,4.97
2022-11-05T21:37:33.258Z,4.80
2022-11-05T21:40:38.098Z,5.32
2022-11-05T21:43:42.617Z,4.97
2022-11-05T21:46:46.339Z,5.20
2022-11-05T21:49:55.713Z,5.40
2022-11-05T21:53:19.531Z,4.47
2022-11-05T21:56:45.473Z,4.85
2022-11-05T21:59:48.486Z,4.73
2022-11-05T22:02:52.398Z,5.10
2022-11-05T22:06:04.804Z,5.65
2022-11-05T22:09:07.491Z,4.45
2022-11-05T22:12:11.039Z,3.83
2022-11-05T22:15:14.502Z,4.90
2022-11-05T22:18:18.039Z,5.00
2022-11-05T22:21:20.660Z,4.57
2022-11-05T22:24:24.289Z,4.05
2022-11-05T22:27:31.353Z,4.30
2022-11-05T22:30:37.227Z,4.53
2022-11-05T22:33:39.968Z,4.87
2022-11-05T22:36:42.909Z,4.93
2022-11-05T22:39:46.402Z,5.10
2022-11-05T22:42:49.789Z,4.97
2022-11-05T22:45:55.999Z,4.20
2022-11-05T22:49:00.046Z,4.43
2022-11-05T22:52:03.404Z,5.03
2022-11-05T22:55:09.453Z,4.85
2022-11-05T22:58:12.408Z,4.65
2022-11-05T23:01:16.774Z,4.90
2022-11-05T23:04:23.758Z,4.70
2022-11-05T23:07:49.331Z,4.97
2022-11-05T23:11:18.900Z,4.60
2022-11-05T23:14:25.392Z,4.15
2022-11-05T23:17:48.294Z,4.90
2022-11-05T23:21:10.948Z,4.47
2022-11-05T23:24:14.370Z,4.63
2022-11-05T23:27:17.309Z,4.55
2022-11-05T23:30:24.218Z,4.25
2022-11-05T23:33:27.768Z,4.73
2022-11-05T23:36:48.734Z,4.67
2022-11-05T23:39:52.007Z,4.65
2022-11-05T23:43:18.529Z,4.00
2022-11-05T23:46:40.067Z,4.70
2022-11-05T23:49:42.696Z,4.37
2022-11-05T23:52:46.002Z,3.60
2022-11-05T23:55:49.317Z,4.78
2022-11-05T23:58:52.014Z,4.80
